Time;durP1;ratioP1;P1;durP2;ratioP2;P2;SDS_P1;SDS_P2;PMS_P1;PMS_P2;Temp;Humidity;BMP_temperature;BMP_pressure;BME280_temperature;BME280_humidity;BME280_pressure;Samples;Min_cycle;Max_cycle;Signal;HPM_P1;HPM_P2
2021/10/25 08:08:54;;;;;;;3.95;2.50;;;;;;;8.80;100.00;100697.34;1774764;79;23338;-71
2021/10/25 08:11:18;;;;;;;7.85;2.30;;;;;;;9.00;100.00;100700.50;1769236;80;21500;-71
2021/10/25 08:13:49;;;;;;;2.45;2.10;;;;;;;9.10;100.00;100701.19;1795691;79;21148;-71
2021/10/25 08:21:20;;;;;;;3.47;1.77;;;;;;;9.31;96.92;100698.17;1768289;81;20899;-71
2021/10/25 08:23:49;;;;;;;3.60;2.37;;;;;;;9.40;94.16;100704.08;1738487;81;20999;-72
2021/10/25 08:26:19;;;;;;;2.92;2.10;;;;;;;9.46;91.79;100700.30;1755738;80;21157;-70
2021/10/25 08:28:50;;;;;;;3.30;2.00;;;;;;;9.57;90.07;100709.34;1787805;79;20968;-72
2021/10/25 08:31:18;;;;;;;6.28;2.58;;;;;;;9.65;88.00;100700.30;1791259;79;20988;-71
2021/10/25 08:34:14;;;;;;;3.45;1.95;;;;;;;9.74;86.17;100703.12;1791748;80;20924;-71
2021/10/25 08:36:21;;;;;;;3.63;2.17;;;;;;;9.83;84.93;100704.64;1787565;79;21099;-71
2021/10/25 08:44:40;;;;;;;3.10;1.80;;;;;;;10.19;79.73;100699.27;1786686;77;20867;-62
2021/10/25 08:47:10;;;;;;;4.08;1.77;;;;;;;10.31;77.05;100702.62;1799869;78;20996;-62
2021/10/25 08:49:39;;;;;;;12.47;1.70;;;;;;;10.38;74.27;100709.79;1793566;79;21006;-62
2021/10/25 08:52:07;;;;;;;2.45;1.50;;;;;;;10.46;72.38;100701.63;1800659;79;21826;-62
2021/10/25 08:54:37;;;;;;;3.22;1.70;;;;;;;10.54;70.45;100701.77;1800720;79;21751;-63
2021/10/25 08:57:06;;;;;;;2.98;1.80;;;;;;;10.60;68.81;100712.00;1800726;79;21294;-62
2021/10/25 08:59:36;;;;;;;3.85;1.80;;;;;;;10.68;67.69;100694.56;1804310;78;21533;-62
2021/10/25 09:02:10;;;;;;;3.98;1.98;;;;;;;10.79;67.09;100697.39;1816644;78;20906;-61
2021/10/25 09:05:06;;;;;;;3.98;1.65;;;;;;;10.91;66.43;100699.38;1801290;79;21288;-62
2021/10/25 09:08:03;;;;;;;2.77;1.65;;;;;;;11.06;65.05;100693.47;1802172;79;20819;-63
2021/10/25 09:10:42;;;;;;;4.08;1.35;;;;;;;11.17;63.73;100689.25;1801428;79;21389;-62
2021/10/25 09:13:18;;;;;;;5.12;1.72;;;;;;;11.29;62.88;100690.76;1801704;79;20870;-63
2021/10/25 09:15:53;;;;;;;3.55;1.77;;;;;;;11.43;62.31;100692.32;1802038;79;20916;-63
2021/10/25 09:18:31;;;;;;;5.03;1.92;;;;;;;11.55;61.84;100692.50;1797673;79;21872;-63
2021/10/25 09:21:05;;;;;;;5.03;1.80;;;;;;;11.72;61.69;100687.45;1801970;79;20875;-64
2021/10/25 09:23:44;;;;;;;2.83;1.50;;;;;;;11.83;60.75;100690.75;1766436;79;21492;-66
2021/10/25 09:33:00;;;;;;;3.08;1.42;;;;;;;12.21;56.89;100681.97;1822686;75;21143;31
2021/10/25 09:35:44;;;;;;;2.45;1.60;;;;;;;12.33;55.75;100668.45;1669214;84;21074;-64
2021/10/25 09:38:34;;;;;;;2.83;1.50;;;;;;;12.42;54.63;100672.52;1638338;86;20978;-65
2021/10/25 09:49:34;;;;;;;2.60;1.60;;;;;;;12.79;52.15;100672.48;1665591;84;21029;-64
2021/10/25 09:52:06;;;;;;;4.17;2.10;;;;;;;12.87;51.42;100677.41;1667533;84;20874;-64
2021/10/25 09:54:35;;;;;;;3.75;1.62;;;;;;;12.87;50.89;100674.76;1669581;84;21010;-64
2021/10/25 09:57:10;;;;;;;2.02;1.45;;;;;;;12.91;50.59;100674.80;1669526;84;20891;-65
2021/10/25 09:59:57;;;;;;;3.10;1.60;;;;;;;12.99;50.19;100670.89;1622794;88;21594;-64
2021/10/25 10:02:27;;;;;;;2.05;1.60;;;;;;;13.09;49.71;100670.52;1632362;86;21048;-64
2021/10/25 10:04:58;;;;;;;3.80;1.65;;;;;;;13.20;49.20;100666.22;1643282;84;21081;-65
2021/10/25 10:07:27;;;;;;;3.45;1.70;;;;;;;13.27;48.26;100668.08;1669545;84;20993;-63
2021/10/25 10:09:58;;;;;;;2.15;1.80;;;;;;;13.30;47.39;100666.77;1669144;84;21045;-63
2021/10/25 10:12:27;;;;;;;3.85;1.82;;;;;;;13.32;47.12;100661.48;1643384;84;21136;-63
2021/10/25 10:15:00;;;;;;;2.80;1.62;;;;;;;13.37;46.79;100659.75;1667171;84;21586;-63
2021/10/25 10:17:38;;;;;;;2.98;1.90;;;;;;;13.41;46.61;100658.45;1665277;84;21001;-64
2021/10/25 10:20:11;;;;;;;3.75;1.60;;;;;;;13.50;46.39;100654.97;1664362;84;21128;-64
2021/10/25 10:22:49;;;;;;;5.85;1.57;;;;;;;13.61;46.16;100660.33;1668387;84;20926;-64
2021/10/25 10:25:34;;;;;;;7.87;2.58;;;;;;;13.70;45.69;100655.97;1669079;86;21342;-62
2021/10/25 10:28:11;;;;;;;5.50;1.82;;;;;;;13.79;45.25;100648.09;1645354;86;20930;-64
2021/10/25 10:30:59;;;;;;;2.10;1.50;;;;;;;13.86;44.83;100651.65;1669147;84;20960;-64
2021/10/25 10:34:39;;;;;;;2.70;1.62;;;;;;;14.00;44.49;100645.07;1644659;85;21008;-64
2021/10/25 10:37:25;;;;;;;14.00;2.30;;;;;;;14.07;43.64;100637.58;1643776;86;20910;-64
2021/10/25 10:40:11;;;;;;;14.23;2.77;;;;;;;14.13;42.84;100626.98;1663698;86;21981;-64
2021/10/25 10:42:58;;;;;;;19.70;3.60;;;;;;;14.21;42.21;100619.96;1670380;84;21588;-64
2021/10/25 10:45:28;;;;;;;15.83;3.55;;;;;;;14.34;42.10;100616.89;1657865;86;20985;-64
2021/10/25 10:47:59;;;;;;;53.65;5.55;;;;;;;14.43;41.88;100619.16;1644774;85;21069;-65
2021/10/25 10:50:46;;;;;;;46.98;5.20;;;;;;;14.51;41.82;100619.16;1655751;84;21928;-65
2021/10/25 10:53:12;;;;;;;24.20;4.60;;;;;;;14.58;41.56;100620.05;1653823;84;21133;-65
2021/10/25 10:55:43;;;;;;;56.00;8.75;;;;;;;14.66;41.28;100616.55;1670717;84;21453;-65
2021/10/25 10:58:28;;;;;;;26.23;4.50;;;;;;;14.68;40.99;100620.54;1664686;84;20934;-64
2021/10/25 11:01:04;;;;;;;15.00;3.65;;;;;;;14.72;40.58;100618.33;1654515;84;21492;-63
2021/10/25 11:03:33;;;;;;;12.33;2.33;;;;;;;14.75;40.21;100619.21;1665483;84;20906;-65
2021/10/25 11:06:10;;;;;;;18.82;3.50;;;;;;;14.82;39.99;100611.24;1625483;87;21624;-64
2021/10/25 11:08:41;;;;;;;23.45;3.67;;;;;;;14.87;39.85;100612.12;1623334;86;20942;-65
2021/10/25 11:11:13;;;;;;;21.82;3.42;;;;;;;14.95;39.53;100610.34;1626589;86;20994;-66
2021/10/25 11:13:49;;;;;;;8.90;2.62;;;;;;;15.04;39.28;100610.34;1640530;86;21456;-65
2021/10/25 11:17:25;;;;;;;12.68;2.42;;;;;;;15.13;39.02;100610.33;1640970;86;21476;-63
2021/10/25 11:19:00;;;;;;;34.73;3.67;;;;;;;15.25;38.66;100612.11;1632226;86;21136;-65
2021/10/25 11:21:40;;;;;;;16.42;3.70;;;;;;;15.32;38.13;100610.77;1669998;85;20958;-63
2021/10/25 11:24:13;;;;;;;52.93;6.53;;;;;;;15.33;37.82;100612.53;1669588;84;20946;-65
2021/10/25 11:26:45;;;;;;;56.88;8.70;;;;;;;15.38;37.63;100603.22;1669315;84;20910;-66
2021/10/25 11:29:24;;;;;;;64.50;7.72;;;;;;;15.42;37.48;100604.53;1669460;86;20895;-65
2021/10/25 11:32:06;;;;;;;55.75;7.72;;;;;;;15.50;37.29;100599.19;1670244;84;21135;-63
2021/10/25 11:34:41;;;;;;;49.88;7.83;;;;;;;15.62;36.90;100598.33;1670760;84;21578;-64
2021/10/25 11:37:19;;;;;;;53.55;6.47;;;;;;;15.69;36.49;100594.76;1695576;83;21014;-64
2021/10/25 11:42:26;;;;;;;49.67;7.87;;;;;;;15.76;36.13;100588.52;1683562;84;20944;-64
2021/10/25 11:45:01;;;;;;;43.52;6.85;;;;;;;15.77;36.02;100587.62;1667156;84;21162;-67
2021/10/25 11:47:35;;;;;;;25.82;5.22;;;;;;;15.81;35.82;100583.18;1684241;83;21558;-64
2021/10/25 11:50:20;;;;;;;23.12;4.90;;;;;;;15.80;35.56;100577.42;1655928;86;21041;-64
2021/10/25 11:53:01;;;;;;;14.85;4.00;;;;;;;15.72;35.22;100576.13;1648514;86;20991;-62
2021/10/25 11:55:29;;;;;;;21.37;5.10;;;;;;;15.57;34.74;100574.34;1651843;85;21593;-62
2021/10/25 11:58:04;;;;;;;;;;;;;;;15.49;34.64;100562.85;1639636;86;21504;-62
2021/10/25 12:00:35;;;;;;;52.95;6.83;;;;;;;15.49;34.46;100571.27;1679481;83;20449;-63
2021/10/25 12:03:12;;;;;;;28.25;5.30;;;;;;;15.45;34.37;100562.42;1687154;84;21034;-63
2021/10/25 12:05:41;;;;;;;24.30;5.65;;;;;;;15.42;34.21;100557.12;1682164;84;20957;-64
2021/10/25 12:08:14;;;;;;;34.45;5.20;;;;;;;15.44;34.24;100564.64;1657404;86;20902;-61
2021/10/25 12:10:44;;;;;;;31.25;5.10;;;;;;;15.55;34.42;100563.27;1649110;86;21203;-63
2021/10/25 12:13:13;;;;;;;36.20;5.17;;;;;;;15.67;34.58;100560.62;1649899;86;20995;-62
2021/10/25 12:15:53;;;;;;;29.32;5.45;;;;;;;15.78;34.59;100563.23;1653033;85;21463;-62
2021/10/25 12:18:21;;;;;;;32.23;5.40;;;;;;;15.89;34.47;100569.39;1647254;86;20886;-63
2021/10/25 12:20:49;;;;;;;27.17;5.35;;;;;;;15.98;33.88;100560.91;1614557;88;21066;-66
2021/10/25 12:23:20;;;;;;;43.13;6.28;;;;;;;16.06;33.37;100560.86;1683886;83;21260;-64
2021/10/25 12:26:04;;;;;;;37.50;6.08;;;;;;;16.08;33.08;100558.19;1677936;84;20971;-64
2021/10/25 12:28:37;;;;;;;35.63;5.47;;;;;;;16.12;32.75;100559.52;1683812;83;20982;-64
2021/10/25 12:31:08;;;;;;;37.15;6.12;;;;;;;16.14;32.46;100566.17;1684529;84;21088;-65
2021/10/25 12:33:38;;;;;;;27.33;5.37;;;;;;;16.17;32.25;100556.84;1682062;84;21061;-63
2021/10/25 12:36:17;;;;;;;36.98;5.90;;;;;;;16.17;31.93;100562.16;1651554;86;21154;-64
2021/10/25 12:38:47;;;;;;;31.17;6.72;;;;;;;16.11;31.70;100557.76;1651914;86;21053;-66
2021/10/25 12:41:15;;;;;;;37.20;6.85;;;;;;;16.09;31.55;100552.89;1650270;86;21069;-65
2021/10/25 12:43:46;;;;;;;24.35;5.80;;;;;;;16.12;31.29;100553.32;1651947;86;20948;-65
2021/10/25 12:46:18;;;;;;;18.70;5.08;;;;;;;16.14;31.09;100547.09;1653165;86;21394;-65
2021/10/25 12:48:52;;;;;;;73.00;7.50;;;;;;;16.10;30.81;100546.67;1652221;86;21209;-65
2021/10/25 12:51:20;;;;;;;22.27;5.25;;;;;;;16.08;30.64;100543.55;1651077;86;20906;-69
2021/10/25 12:53:51;;;;;;;67.47;7.90;;;;;;;16.05;30.54;100545.34;1649404;86;20994;-68
2021/10/25 12:56:30;;;;;;;59.48;6.87;;;;;;;16.03;30.26;100551.12;1647420;86;21038;-68
2021/10/25 12:59:04;;;;;;;19.57;5.10;;;;;;;15.98;30.08;100545.39;1649643;86;21079;-69
2021/10/25 13:01:33;;;;;;;95.35;7.75;;;;;;;15.93;29.94;100541.87;1645180;86;21995;-68
2021/10/25 13:04:05;;;;;;;15.63;4.87;;;;;;;15.91;30.00;100535.67;1649498;86;21413;-67
2021/10/25 13:06:35;;;;;;;83.22;10.90;;;;;;;15.83;29.85;100537.49;1653109;86;20859;-68
2021/10/25 13:09:08;;;;;;;15.98;4.03;;;;;;;15.74;29.87;100537.98;1650375;86;21069;-68
2021/10/25 13:11:37;;;;;;;15.15;4.20;;;;;;;15.69;29.99;100531.80;1650887;86;21006;-68
2021/10/25 13:14:09;;;;;;;13.22;3.67;;;;;;;15.64;29.87;100531.38;1647848;86;21569;-67
2021/10/25 13:16:45;;;;;;;20.25;3.60;;;;;;;15.51;29.70;100526.94;1651074;86;20982;-63
2021/10/25 13:19:15;;;;;;;10.72;3.50;;;;;;;15.35;29.59;100527.45;1649282;86;21034;-63
2021/10/25 13:21:43;;;;;;;16.50;3.62;;;;;;;15.21;29.54;100523.52;1653445;86;21085;-62
2021/10/25 13:24:12;;;;;;;41.23;4.58;;;;;;;15.08;29.57;100529.72;1652611;86;21094;-62
2021/10/25 13:26:40;;;;;;;13.18;3.15;;;;;;;14.92;29.56;100527.55;1653071;86;21139;-63
2021/10/25 13:29:08;;;;;;;11.80;3.33;;;;;;;14.87;29.69;100521.36;1653402;86;20999;-62
2021/10/25 13:31:35;;;;;;;10.32;2.80;;;;;;;14.85;29.71;100528.44;1653377;86;21069;-63
2021/10/25 13:34:03;;;;;;;11.80;3.17;;;;;;;14.80;29.76;100524.91;1653490;86;20887;-61
2021/10/25 13:36:33;;;;;;;57.13;7.08;;;;;;;14.66;29.94;100522.27;1671212;84;20908;-63
2021/10/25 13:39:01;;;;;;;28.60;4.05;;;;;;;14.56;30.24;100523.57;1690674;83;21179;-61
2021/10/25 13:41:30;;;;;;;10.70;3.10;;;;;;;14.46;30.41;100520.92;1684002;84;21475;-62
2021/10/25 13:43:58;;;;;;;6.05;2.80;;;;;;;14.34;30.59;100522.22;1637110;84;20974;-62
2021/10/25 13:46:27;;;;;;;7.55;3.05;;;;;;;14.24;30.73;100520.44;1683978;84;20917;-62
2021/10/25 13:48:54;;;;;;;13.62;3.45;;;;;;;13.98;30.69;100522.14;1683893;85;20941;-63
2021/10/25 13:51:22;;;;;;;4.33;2.62;;;;;;;13.77;30.85;100513.70;1690297;84;21163;-65
2021/10/25 13:53:49;;;;;;;26.25;3.70;;;;;;;13.68;31.04;100517.63;1696184;84;20971;-64
2021/10/25 13:56:18;;;;;;;4.92;2.70;;;;;;;13.58;31.28;100514.50;1696109;84;20991;-62
2021/10/25 13:58:47;;;;;;;4.62;2.80;;;;;;;13.49;31.46;100506.95;1696082;84;21010;-62
2021/10/25 14:01:15;;;;;;;14.05;3.33;;;;;;;13.39;31.62;100514.43;1694928;84;21061;-62
2021/10/25 14:03:45;;;;;;;4.87;2.60;;;;;;;13.28;31.85;100506.88;1687035;83;21316;-62
2021/10/25 14:06:14;;;;;;;4.80;2.95;;;;;;;13.15;32.01;100506.30;1692860;84;21070;-62
2021/10/25 14:08:48;;;;;;;5.15;2.90;;;;;;;13.00;32.22;100508.44;1695026;83;21675;-63
2021/10/25 14:11:17;;;;;;;15.88;3.60;;;;;;;12.86;32.45;100508.80;1684050;83;20953;-63
2021/10/25 14:18:51;;;;;;;3.52;2.85;;;;;;;12.46;33.12;100502.30;1683897;85;20958;-61
2021/10/25 14:21:21;;;;;;;52.35;5.75;;;;;;;12.31;33.30;100504.39;1657130;85;21421;-63
2021/10/25 14:23:49;;;;;;;20.27;4.17;;;;;;;12.22;33.48;100505.61;1666592;86;21441;-62
2021/10/25 14:26:17;;;;;;;6.25;2.70;;;;;;;12.09;33.55;100499.32;1667021;85;21054;-62
2021/10/25 14:28:45;;;;;;;4.83;2.92;;;;;;;12.00;33.67;100502.31;1666643;86;21173;-62
2021/10/25 14:31:15;;;;;;;6.72;3.02;;;;;;;11.89;33.73;100503.10;1666444;86;20999;-62
2021/10/25 14:33:43;;;;;;;6.10;2.30;;;;;;;11.79;33.77;100501.64;1666617;85;20879;-62
2021/10/25 14:36:12;;;;;;;7.30;2.50;;;;;;;11.68;33.79;100501.05;1666207;85;20975;-63
2021/10/25 14:41:28;;;;;;;6.95;2.33;;;;;;;11.46;33.89;100498.16;1664990;86;21139;-61
2021/10/25 14:44:01;;;;;;;;;;;;;;;11.34;33.85;100500.19;1667287;84;20951;-63
2021/10/25 14:49:10;;;;;;;45.00;5.30;;;;;;;11.15;34.07;100498.18;1675559;84;20962;-63
2021/10/25 14:54:20;;;;;;;51.48;6.70;;;;;;;11.03;34.17;100502.88;1676985;84;21575;-63
2021/10/25 14:56:46;;;;;;;51.85;6.17;;;;;;;10.96;34.29;100496.62;1694646;84;21029;-63
2021/10/25 14:59:14;;;;;;;167.57;13.55;;;;;;;10.92;34.57;100500.09;1669913;84;20952;-63
2021/10/25 15:01:42;;;;;;;78.52;8.98;;;;;;;10.86;34.86;100502.61;1665189;86;20923;-62
2021/10/25 15:04:11;;;;;;;48.38;6.60;;;;;;;10.79;35.10;100506.45;1664967;86;21067;-62
2021/10/25 15:06:40;;;;;;;47.13;7.28;;;;;;;10.69;35.33;100508.96;1689036;84;21094;-61
2021/10/25 15:09:08;;;;;;;42.75;6.97;;;;;;;10.58;35.51;100508.34;1656452;86;20958;-62
2021/10/25 15:11:37;;;;;;;51.30;9.40;;;;;;;10.51;35.70;100511.32;1628712;88;21539;-65
2021/10/25 15:14:07;;;;;;;69.12;16.65;;;;;;;10.43;35.73;100510.31;1656658;86;21544;-66
2021/10/25 15:16:36;;;;;;;51.50;16.80;;;;;;;10.34;35.95;100506.17;1656585;86;20891;-66
2021/10/25 15:19:04;;;;;;;42.38;16.65;;;;;;;10.23;36.17;100505.11;1656541;86;21944;-68
2021/10/25 15:21:32;;;;;;;55.23;14.20;;;;;;;10.13;36.45;100511.95;1656482;86;20947;-66
2021/10/25 15:24:00;;;;;;;44.90;13.90;;;;;;;10.02;36.65;100506.48;1656520;86;20958;-67
2021/10/25 15:26:29;;;;;;;53.05;12.90;;;;;;;9.92;36.95;100511.10;1656411;86;20942;-64
2021/10/25 15:28:57;;;;;;;37.42;12.63;;;;;;;9.82;37.18;100513.55;1656551;86;21413;-65
2021/10/25 15:31:25;;;;;;;41.33;12.55;;;;;;;9.70;37.37;100519.47;1663370;85;22008;-65
2021/10/25 15:33:53;;;;;;;63.50;12.58;;;;;;;9.57;37.63;100516.14;1657366;85;20945;-65
2021/10/25 15:36:23;;;;;;;464.60;36.90;;;;;;;9.47;37.85;100517.71;1694604;84;21030;-67
2021/10/25 15:38:52;;;;;;;149.18;16.15;;;;;;;9.34;37.97;100523.12;1695230;83;21570;-65
2021/10/25 15:41:21;;;;;;;110.25;13.68;;;;;;;9.22;38.02;100522.88;1695887;83;21040;-64
2021/10/25 15:43:49;;;;;;;79.15;13.10;;;;;;;9.09;38.01;100526.98;1682690;84;21178;-66
2021/10/25 15:46:24;;;;;;;80.30;12.63;;;;;;;8.97;38.20;100525.80;1681221;84;20943;-66
2021/10/25 15:48:50;;;;;;;71.80;12.73;;;;;;;8.86;38.47;100523.36;1687627;83;21012;-64
2021/10/25 15:51:21;;;;;;;83.35;14.15;;;;;;;8.73;38.63;100523.50;1683106;84;22247;-67
2021/10/25 15:53:50;;;;;;;62.15;16.73;;;;;;;8.62;38.79;100524.57;1676373;84;21107;-65
2021/10/25 15:56:19;;;;;;;39.70;13.88;;;;;;;8.50;38.97;100526.45;1658725;84;21157;-65
2021/10/25 15:58:48;;;;;;;25.00;9.58;;;;;;;8.41;39.09;100527.55;1675566;84;21011;-65
2021/10/25 16:01:17;;;;;;;25.17;6.92;;;;;;;8.30;39.07;100522.84;1677192;83;21036;-63
2021/10/25 16:03:45;;;;;;;16.77;5.47;;;;;;;8.18;38.97;100518.17;1684279;83;20914;-63
2021/10/25 16:06:13;;;;;;;14.87;5.22;;;;;;;8.07;38.90;100523.58;1689427;83;20940;-63
2021/10/25 16:08:42;;;;;;;99.40;11.68;;;;;;;7.96;38.89;100519.33;1666646;85;21158;-64
2021/10/25 16:11:11;;;;;;;30.40;6.78;;;;;;;7.85;39.06;100517.73;1672976;84;20930;-63
2021/10/25 16:13:39;;;;;;;25.85;10.00;;;;;;;7.77;39.24;100521.01;1674245;84;21068;-64
2021/10/25 16:16:08;;;;;;;28.15;12.03;;;;;;;7.69;39.45;100528.68;1674378;84;21099;-65
2021/10/25 16:18:38;;;;;;;19.10;9.03;;;;;;;7.62;39.75;100524.53;1683505;84;21611;-64
2021/10/25 16:21:06;;;;;;;18.52;9.95;;;;;;;7.56;39.95;100526.53;1672950;84;21169;-62
2021/10/25 16:23:34;;;;;;;28.67;10.93;;;;;;;7.50;40.16;100525.05;1666535;85;21476;-64
2021/10/25 16:26:02;;;;;;;64.50;12.07;;;;;;;7.44;40.29;100525.77;1671399;85;20954;-63
2021/10/25 16:28:31;;;;;;;21.17;10.60;;;;;;;7.38;40.48;100526.91;1686341;83;21497;-62
2021/10/25 16:31:00;;;;;;;22.10;11.88;;;;;;;7.31;40.70;100524.95;1692200;83;20961;-63
2021/10/25 16:33:28;;;;;;;24.12;12.70;;;;;;;7.24;40.96;100522.58;1696332;83;21121;-63
2021/10/25 16:35:56;;;;;;;33.67;17.15;;;;;;;7.19;41.25;100520.24;1696219;84;21033;-63
2021/10/25 16:38:24;;;;;;;30.70;14.87;;;;;;;7.14;41.54;100524.47;1696159;83;20994;-63
2021/10/25 16:40:53;;;;;;;34.08;18.40;;;;;;;7.09;41.91;100523.83;1696210;83;21016;-62
2021/10/25 16:43:21;;;;;;;37.90;19.45;;;;;;;7.03;42.15;100528.47;1675701;83;20992;-63
2021/10/25 16:45:52;;;;;;;36.77;20.05;;;;;;;6.97;42.34;100525.67;1623881;88;21205;-64
2021/10/25 16:48:31;;;;;;;35.45;18.15;;;;;;;6.92;42.56;100522.02;1653496;85;21562;-64
2021/10/25 16:50:53;;;;;;;27.77;14.28;;;;;;;6.87;42.88;100528.86;1620815;88;21008;-63
2021/10/25 17:04:09;;;;;;;18.45;9.05;;;;;;;6.61;44.24;100521.04;1653699;85;21012;-63
2021/10/25 17:09:20;;;;;;;17.95;10.15;;;;;;;6.52;44.68;100522.48;1589693;86;21030;-63
2021/10/25 17:11:46;;;;;;;18.25;9.83;;;;;;;6.47;44.87;100521.03;1653020;84;21163;-63
2021/10/25 17:14:14;;;;;;;19.82;9.15;;;;;;;6.42;45.10;100519.98;1667509;84;20883;-62
2021/10/25 17:16:42;;;;;;;36.50;11.12;;;;;;;6.39;45.35;100518.58;1650869;86;20914;-64
2021/10/25 17:19:11;;;;;;;41.65;10.60;;;;;;;6.37;45.56;100520.27;1700126;83;21454;-64
2021/10/25 17:21:40;;;;;;;45.98;10.10;;;;;;;6.34;45.65;100513.61;1696609;83;20936;-63
2021/10/25 17:24:08;;;;;;;36.70;11.25;;;;;;;6.33;45.69;100513.14;1696306;84;21123;-63
2021/10/25 17:26:40;;;;;;;26.82;10.72;;;;;;;6.29;45.72;100516.08;1696632;83;20904;-63
2021/10/25 17:29:08;;;;;;;21.07;10.70;;;;;;;6.26;45.65;100510.74;1696378;83;20877;-63
2021/10/25 17:31:39;;;;;;;25.20;11.68;;;;;;;6.23;45.76;100514.58;1696674;84;20955;-64
2021/10/25 17:34:10;;;;;;;21.77;11.35;;;;;;;6.20;46.03;100509.23;1696433;83;20952;-63
2021/10/25 17:36:38;;;;;;;26.85;11.70;;;;;;;6.18;46.18;100515.27;1696565;84;21706;-63
2021/10/25 17:39:07;;;;;;;25.05;10.98;;;;;;;6.14;46.42;100522.09;1694779;84;21452;-64
2021/10/25 17:41:36;;;;;;;22.02;10.45;;;;;;;6.11;46.68;100521.11;1695090;84;20912;-63
2021/10/25 17:44:07;;;;;;;22.22;11.73;;;;;;;6.08;46.84;100527.13;1694835;84;20967;-64
2021/10/25 17:46:35;;;;;;;20.90;11.88;;;;;;;6.06;47.11;100531.43;1695090;84;20884;-62
2021/10/25 17:49:03;;;;;;;22.05;11.68;;;;;;;6.04;47.45;100529.17;1694825;84;21972;-63
2021/10/25 17:51:32;;;;;;;25.85;12.70;;;;;;;6.02;47.72;100525.62;1685531;84;21492;-62
2021/10/25 17:54:02;;;;;;;24.30;13.50;;;;;;;5.99;47.94;100528.13;1672414;84;20877;-64
2021/10/25 17:56:30;;;;;;;24.75;14.28;;;;;;;5.98;48.18;100534.20;1675165;84;21444;-62
2021/10/25 17:58:58;;;;;;;31.93;14.87;;;;;;;5.96;48.43;100533.27;1672264;85;20892;-62
2021/10/25 18:01:25;;;;;;;26.10;15.20;;;;;;;5.93;48.68;100520.95;1675035;84;21133;-65
2021/10/25 18:03:53;;;;;;;25.90;14.38;;;;;;;5.91;48.85;100520.43;1673235;84;21435;-62
2021/10/25 18:06:21;;;;;;;27.20;15.43;;;;;;;5.88;49.04;100518.98;1672044;84;21539;-62
2021/10/25 18:08:48;;;;;;;29.35;15.03;;;;;;;5.86;49.24;100519.35;1671548;84;20976;-62
2021/10/25 18:11:16;;;;;;;32.53;17.02;;;;;;;5.83;49.47;100522.75;1675500;84;20947;-64
2021/10/25 18:13:45;;;;;;;32.85;16.70;;;;;;;5.81;49.70;100520.50;1675595;84;21414;-62
2021/10/25 18:16:14;;;;;;;33.53;16.20;;;;;;;5.79;49.83;100524.80;1677238;84;20908;-62
2021/10/25 18:18:42;;;;;;;31.07;16.27;;;;;;;5.77;49.73;100520.34;1691148;84;20880;-63
2021/10/25 18:21:10;;;;;;;35.55;17.23;;;;;;;5.72;49.63;100525.42;1689900;84;20881;-63
2021/10/25 18:23:38;;;;;;;40.65;18.20;;;;;;;5.69;49.71;100524.89;1694863;84;20932;-66
2021/10/25 18:26:05;;;;;;;49.30;17.07;;;;;;;5.67;49.75;100521.30;1694892;84;21078;-66
2021/10/25 18:28:33;;;;;;;68.95;22.22;;;;;;;5.66;49.71;100517.32;1694755;84;20860;-67
2021/10/25 18:31:00;;;;;;;66.67;20.12;;;;;;;5.64;49.54;100517.69;1694852;84;20943;-67
2021/10/25 18:33:28;;;;;;;46.83;20.35;;;;;;;5.61;49.45;100511.92;1694958;84;20879;-66
2021/10/25 18:35:56;;;;;;;49.15;21.17;;;;;;;5.60;49.22;100518.41;1694855;84;20955;-66
2021/10/25 18:38:23;;;;;;;40.08;20.43;;;;;;;5.58;49.12;100520.09;1694935;84;21093;-67
2021/10/25 18:40:51;;;;;;;40.95;21.75;;;;;;;5.55;48.88;100526.09;1694965;84;21418;-66
2021/10/25 18:43:18;;;;;;;43.83;21.95;;;;;;;5.52;48.84;100526.41;1695320;84;20939;-65
2021/10/25 18:45:46;;;;;;;41.20;21.23;;;;;;;5.46;48.98;100524.46;1695141;84;20899;-66
2021/10/25 18:48:16;;;;;;;40.30;21.23;;;;;;;5.41;49.21;100523.41;1695464;84;20871;-66
2021/10/25 18:50:43;;;;;;;40.58;20.82;;;;;;;5.36;49.50;100520.62;1695098;84;21119;-66
2021/10/25 18:53:11;;;;;;;42.80;21.75;;;;;;;5.32;49.65;100517.42;1695401;84;20895;-65
2021/10/25 18:55:40;;;;;;;45.43;22.30;;;;;;;5.27;49.86;100520.29;1695004;84;21478;-66
2021/10/25 18:58:07;;;;;;;42.43;21.27;;;;;;;5.24;50.29;100517.98;1695266;84;21484;-67
2021/10/25 19:00:36;;;;;;;34.38;20.68;;;;;;;5.21;50.76;100517.86;1681422;84;20960;-67
2021/10/25 19:03:05;;;;;;;37.38;20.88;;;;;;;5.19;51.15;100520.80;1665817;86;21058;-66
2021/10/25 19:05:35;;;;;;;40.48;21.05;;;;;;;5.16;51.38;100516.35;1665566;86;20982;-67
2021/10/25 19:08:03;;;;;;;43.02;21.07;;;;;;;5.16;51.52;100518.08;1665850;86;21009;-65
2021/10/25 19:10:31;;;;;;;45.65;21.65;;;;;;;5.15;51.67;100513.69;1665528;86;21451;-67
2021/10/25 19:12:59;;;;;;;39.85;21.55;;;;;;;5.12;51.78;100511.84;1679918;84;21002;-67
2021/10/25 19:15:26;;;;;;;40.73;20.52;;;;;;;5.12;52.01;100510.95;1688334;85;21065;-66
2021/10/25 19:17:54;;;;;;;41.83;20.72;;;;;;;5.10;52.20;100510.00;1688523;85;20946;-67
2021/10/25 19:20:21;;;;;;;39.20;21.10;;;;;;;5.08;52.39;100502.52;1688318;85;20919;-67
2021/10/25 19:22:49;;;;;;;40.08;21.40;;;;;;;5.04;52.58;100498.90;1665788;84;20899;-67
2021/10/25 19:25:18;;;;;;;37.63;22.65;;;;;;;5.00;52.87;100507.46;1659362;86;21506;-67
2021/10/25 19:27:46;;;;;;;39.50;21.97;;;;;;;4.97;53.03;100507.34;1661665;84;21106;-67
2021/10/25 19:30:14;;;;;;;39.98;21.37;;;;;;;4.93;53.17;100499.80;1659477;86;21379;-67
2021/10/25 19:32:42;;;;;;;43.40;23.20;;;;;;;4.93;53.35;100504.14;1659430;86;20999;-66
2021/10/25 19:35:11;;;;;;;42.78;23.27;;;;;;;4.92;53.59;100501.95;1667193;84;21023;-67
2021/10/25 19:37:39;;;;;;;50.45;23.62;;;;;;;4.91;53.89;100499.27;1688843;84;20945;-68
2021/10/25 19:40:08;;;;;;;46.40;23.12;;;;;;;4.90;54.12;100505.33;1655296;85;21055;-68
2021/10/25 19:42:36;;;;;;;57.75;23.50;;;;;;;4.86;54.28;100506.94;1642768;86;21461;-68
2021/10/25 19:45:05;;;;;;;48.60;22.55;;;;;;;4.85;54.37;100504.27;1655292;85;20942;-68
2021/10/25 19:47:36;;;;;;;47.38;21.95;;;;;;;4.84;54.57;100503.38;1654778;85;20949;-69
2021/10/25 19:50:05;;;;;;;44.53;22.30;;;;;;;4.82;54.75;100507.66;1655255;85;20925;-69
2021/10/25 19:52:36;;;;;;;40.70;21.93;;;;;;;4.79;54.87;100498.80;1655865;85;21883;-69
2021/10/25 19:55:06;;;;;;;44.40;22.30;;;;;;;4.75;55.06;100500.41;1655885;86;20962;-68
2021/10/25 19:57:36;;;;;;;43.02;22.07;;;;;;;4.71;55.39;100498.48;1600868;89;20888;-67
2021/10/25 20:00:07;;;;;;;48.42;22.48;;;;;;;4.67;55.86;100501.39;1655421;86;20962;-67
2021/10/25 20:02:36;;;;;;;58.70;21.10;;;;;;;4.65;56.32;100508.70;1654794;86;20894;-67
2021/10/25 20:05:05;;;;;;;48.05;22.50;;;;;;;4.62;56.48;100509.47;1655484;86;21118;-67
2021/10/25 20:07:35;;;;;;;42.08;21.87;;;;;;;4.61;56.59;100510.72;1655213;86;20942;-68
2021/10/25 20:10:05;;;;;;;42.73;21.05;;;;;;;4.59;56.64;100508.45;1655470;86;20954;-68
2021/10/25 20:12:32;;;;;;;38.90;20.50;;;;;;;4.56;56.75;100506.61;1655220;86;21517;-67
2021/10/25 20:15:00;;;;;;;38.25;18.70;;;;;;;4.55;56.78;100517.90;1655575;86;20911;-67
2021/10/25 20:17:28;;;;;;;36.53;19.00;;;;;;;4.54;56.73;100511.31;1655329;86;21783;-67
2021/10/25 20:19:55;;;;;;;37.30;19.15;;;;;;;4.50;56.60;100503.77;1655487;86;20910;-67
2021/10/25 20:22:23;;;;;;;37.75;18.85;;;;;;;4.49;56.43;100501.09;1655254;86;20958;-67
2021/10/25 20:24:50;;;;;;;42.78;20.80;;;;;;;4.45;56.41;100500.49;1655487;86;20887;-66
2021/10/25 20:27:22;;;;;;;111.95;25.40;;;;;;;4.42;56.47;100496.03;1655266;86;21544;-66
2021/10/25 20:29:50;;;;;;;84.42;23.85;;;;;;;4.40;56.55;100501.20;1655418;86;21489;-66
2021/10/25 20:32:18;;;;;;;48.95;20.88;;;;;;;4.37;56.55;100494.55;1655205;86;20954;-67
2021/10/25 20:34:46;;;;;;;41.08;20.23;;;;;;;4.36;56.51;100501.91;1655478;85;20930;-67
2021/10/25 20:37:15;;;;;;;53.00;21.05;;;;;;;4.32;56.44;100496.50;1654646;85;21080;-66
2021/10/25 20:39:43;;;;;;;39.75;20.23;;;;;;;4.29;56.50;100495.08;1683996;84;21900;-67